Time;durP1;ratioP1;P1;durP2;ratioP2;P2;SDS_P1;SDS_P2;PMS_P1;PMS_P2;Temp;Humidity;BMP_temperature;BMP_pressure;BME280_temperature;BME280_humidity;BME280_pressure;Samples;Min_cycle;Max_cycle;Signal;HPM_P1;HPM_P2
2021/06/17 00:00:52;;;;;;;7.00;3.42;;;;;;;;;;4992157;28;20439;-70
2021/06/17 00:03:18;;;;;;;5.70;2.70;;;;;;;;;;4995725;28;20508;-63
2021/06/17 00:05:45;;;;;;;4.70;3.00;;;;;;;;;;4995452;28;20027;-63
2021/06/17 00:08:12;;;;;;;5.63;3.10;;;;;;;;;;4997137;28;20033;-63
2021/06/17 00:10:43;;;;;;;3.63;2.70;;;;;;;;;;4999362;28;20077;-63
2021/06/17 00:13:12;;;;;;;5.03;2.80;;;;;;;;;;4995324;28;20042;-65
2021/06/17 00:15:39;;;;;;;4.95;3.00;;;;;;;;;;4994476;28;20026;-62
2021/06/17 00:18:06;;;;;;;5.13;2.88;;;;;;;;;;4995110;28;20026;-62
2021/06/17 00:20:32;;;;;;;5.18;2.95;;;;;;;;;;4995094;28;20080;-63
2021/06/17 00:22:58;;;;;;;4.22;3.10;;;;;;;;;;4999681;28;20101;-63
2021/06/17 00:25:25;;;;;;;5.80;2.95;;;;;;;;;;4993488;28;20828;-62
2021/06/17 00:27:51;;;;;;;7.10;3.33;;;;;;;;;;4976673;28;20484;-66
2021/06/17 00:30:18;;;;;;;5.80;3.30;;;;;;;;;;4991315;28;20388;-62
2021/06/17 00:32:44;;;;;;;6.88;3.13;;;;;;;;;;4994057;28;20210;-62
2021/06/17 00:35:12;;;;;;;4.97;2.95;;;;;;;;;;4975933;28;20375;-62
2021/06/17 00:37:38;;;;;;;6.15;3.35;;;;;;;;;;4989750;28;20038;-62
2021/06/17 00:40:06;;;;;;;5.82;3.22;;;;;;;;;;4993609;28;20025;-66
2021/06/17 00:42:32;;;;;;;4.53;3.30;;;;;;;;;;4993367;28;20046;-63
2021/06/17 00:44:58;;;;;;;6.90;3.20;;;;;;;;;;5010820;28;20050;-62
2021/06/17 00:47:24;;;;;;;5.40;3.55;;;;;;;;;;5013999;28;20494;-63
2021/06/17 00:49:50;;;;;;;8.50;3.38;;;;;;;;;;5013747;28;20026;-62
2021/06/17 00:52:17;;;;;;;5.55;3.45;;;;;;;;;;5017116;28;20116;-64
2021/06/17 00:54:43;;;;;;;4.80;3.47;;;;;;;;;;5013770;28;20018;-63
2021/06/17 00:57:09;;;;;;;6.72;3.55;;;;;;;;;;5013539;28;20492;-62
2021/06/17 00:59:36;;;;;;;5.40;3.50;;;;;;;;;;5013000;28;20577;-62
2021/06/17 01:02:02;;;;;;;7.47;3.90;;;;;;;;;;5013344;28;20087;-63
2021/06/17 01:04:29;;;;;;;5.85;3.63;;;;;;;;;;5014632;28;20085;-63
2021/06/17 01:06:56;;;;;;;5.63;3.85;;;;;;;;;;5013361;28;20032;-68
2021/06/17 01:09:22;;;;;;;7.25;3.85;;;;;;;;;;5013535;28;20479;-63
2021/06/17 01:12:03;;;;;;;6.45;4.10;;;;;;;;;;5014148;28;20042;-62
2021/06/17 01:15:02;;;;;;;7.32;4.03;;;;;;;;;;5017737;28;20029;-63
2021/06/17 01:17:29;;;;;;;6.18;3.92;;;;;;;;;;4930772;29;20044;-62
2021/06/17 01:20:18;;;;;;;9.52;3.88;;;;;;;;;;4934503;28;20510;-63
2021/06/17 01:22:59;;;;;;;8.38;3.65;;;;;;;;;;4933275;29;20034;-63
2021/06/17 01:25:26;;;;;;;8.77;3.90;;;;;;;;;;4933099;29;20494;-62
2021/06/17 01:27:52;;;;;;;5.70;3.90;;;;;;;;;;4937581;29;20387;-62
2021/06/17 01:30:18;;;;;;;6.03;3.50;;;;;;;;;;4937385;29;20114;-63
2021/06/17 01:32:49;;;;;;;7.55;4.03;;;;;;;;;;4935818;29;20450;-62
2021/06/17 01:35:16;;;;;;;7.25;4.03;;;;;;;;;;4935443;29;20030;-65
2021/06/17 01:37:43;;;;;;;7.65;3.85;;;;;;;;;;4936126;29;20032;-62
2021/06/17 01:40:10;;;;;;;5.20;3.42;;;;;;;;;;4934049;29;20509;-63
2021/06/17 01:42:36;;;;;;;5.53;3.75;;;;;;;;;;4933536;29;20047;-62
2021/06/17 01:45:04;;;;;;;7.03;3.90;;;;;;;;;;4940401;29;20044;-62
2021/06/17 01:47:30;;;;;;;6.82;4.20;;;;;;;;;;4933867;29;20046;-62
2021/06/17 01:49:57;;;;;;;6.03;3.72;;;;;;;;;;4942092;29;20560;-63
2021/06/17 01:52:24;;;;;;;6.28;3.85;;;;;;;;;;4949559;28;20050;-62
2021/06/17 01:54:51;;;;;;;5.30;3.60;;;;;;;;;;5012428;28;20018;-63
2021/06/17 01:57:17;;;;;;;5.72;3.47;;;;;;;;;;5013168;28;20041;-62
2021/06/17 01:59:45;;;;;;;5.00;3.65;;;;;;;;;;5005632;28;20018;-62
2021/06/17 02:02:12;;;;;;;6.15;3.70;;;;;;;;;;5011720;28;20022;-62
2021/06/17 02:04:39;;;;;;;6.50;4.03;;;;;;;;;;5020686;28;20026;-62
2021/06/17 02:07:07;;;;;;;5.38;3.75;;;;;;;;;;5012881;28;20110;-64
2021/06/17 02:09:33;;;;;;;8.35;4.13;;;;;;;;;;5012505;28;20030;-62
2021/06/17 02:11:59;;;;;;;6.07;3.90;;;;;;;;;;5012081;28;20045;-63
2021/06/17 02:14:27;;;;;;;5.35;3.88;;;;;;;;;;5013291;28;20034;-62
2021/06/17 02:16:54;;;;;;;6.55;4.10;;;;;;;;;;5012025;28;20061;-62
2021/06/17 02:19:22;;;;;;;6.88;3.92;;;;;;;;;;5012376;28;20083;-69
2021/06/17 02:21:50;;;;;;;8.10;4.32;;;;;;;;;;5012534;28;20032;-64
2021/06/17 02:24:16;;;;;;;5.80;4.18;;;;;;;;;;5012792;28;20065;-62
2021/06/17 02:26:43;;;;;;;7.63;4.07;;;;;;;;;;5007681;28;20068;-63
2021/06/17 02:29:13;;;;;;;5.82;3.90;;;;;;;;;;5008819;28;20105;-69
2021/06/17 02:31:43;;;;;;;5.97;4.28;;;;;;;;;;5011659;28;20383;-63
2021/06/17 02:34:11;;;;;;;6.30;3.75;;;;;;;;;;5015495;28;20113;-62
2021/06/17 02:36:38;;;;;;;6.10;4.07;;;;;;;;;;5012244;28;20080;-62
2021/06/17 02:39:05;;;;;;;6.70;3.85;;;;;;;;;;5012126;28;20026;-62
2021/06/17 02:41:32;;;;;;;8.45;3.90;;;;;;;;;;5011641;28;20030;-63
2021/06/17 02:43:59;;;;;;;6.07;3.80;;;;;;;;;;5011792;28;20121;-71
2021/06/17 02:46:25;;;;;;;7.18;3.60;;;;;;;;;;5008014;28;20038;-62
2021/06/17 02:48:52;;;;;;;6.00;4.05;;;;;;;;;;5011756;28;20033;-63
2021/06/17 02:51:18;;;;;;;6.55;4.07;;;;;;;;;;5011606;28;20021;-62
2021/06/17 02:53:44;;;;;;;5.28;3.65;;;;;;;;;;5011123;28;20049;-62
2021/06/17 02:56:12;;;;;;;6.43;3.83;;;;;;;;;;5011813;28;20099;-62
2021/06/17 02:59:06;;;;;;;8.90;3.92;;;;;;;;;;5010310;28;20512;-63
2021/06/17 03:01:40;;;;;;;5.43;3.65;;;;;;;;;;5010193;28;20032;-62
2021/06/17 03:04:13;;;;;;;6.75;4.05;;;;;;;;;;5012142;28;20022;-63
2021/06/17 03:06:40;;;;;;;5.13;3.75;;;;;;;;;;5011541;28;20157;-65
2021/06/17 03:09:13;;;;;;;6.05;4.28;;;;;;;;;;5011431;28;20049;-63
2021/06/17 03:11:40;;;;;;;6.93;3.45;;;;;;;;;;5006892;28;20490;-67
2021/06/17 03:14:12;;;;;;;7.65;3.65;;;;;;;;;;5010772;28;20463;-67
2021/06/17 03:16:40;;;;;;;5.80;3.60;;;;;;;;;;5010891;28;20049;-63
2021/06/17 03:19:08;;;;;;;7.28;3.70;;;;;;;;;;5007737;28;20108;-62
2021/06/17 03:21:37;;;;;;;5.97;3.63;;;;;;;;;;5012454;28;20026;-62
2021/06/17 03:24:04;;;;;;;7.70;4.05;;;;;;;;;;5010672;28;20044;-62
2021/06/17 03:26:31;;;;;;;6.30;3.85;;;;;;;;;;5011339;28;20034;-62
2021/06/17 03:28:58;;;;;;;5.75;3.83;;;;;;;;;;5011264;28;20428;-64
2021/06/17 03:31:25;;;;;;;9.20;4.00;;;;;;;;;;5009828;28;20033;-62
2021/06/17 03:33:53;;;;;;;9.23;4.00;;;;;;;;;;5011520;28;20050;-62
2021/06/17 03:36:19;;;;;;;6.38;3.90;;;;;;;;;;5011048;28;20379;-62
2021/06/17 03:38:45;;;;;;;9.15;3.90;;;;;;;;;;5011398;28;20064;-62
2021/06/17 03:41:13;;;;;;;5.32;3.90;;;;;;;;;;5011879;28;20453;-62
2021/06/17 03:43:39;;;;;;;5.60;3.80;;;;;;;;;;5011309;28;20054;-62
2021/06/17 03:46:06;;;;;;;6.28;4.00;;;;;;;;;;5010886;28;20084;-64
2021/06/17 03:48:33;;;;;;;7.60;3.92;;;;;;;;;;5012747;28;20030;-62
2021/06/17 03:51:00;;;;;;;7.32;3.90;;;;;;;;;;5010565;28;20025;-68
2021/06/17 03:53:26;;;;;;;7.28;3.90;;;;;;;;;;5013189;28;20060;-63
2021/06/17 03:55:54;;;;;;;7.85;3.97;;;;;;;;;;5010248;28;20034;-63
2021/06/17 03:58:23;;;;;;;6.57;3.88;;;;;;;;;;5010053;28;20528;-62
2021/06/17 04:00:49;;;;;;;8.30;4.30;;;;;;;;;;5011043;28;20014;-62
2021/06/17 04:03:16;;;;;;;8.93;4.30;;;;;;;;;;5011028;28;20026;-63
2021/06/17 04:05:42;;;;;;;7.45;3.95;;;;;;;;;;5010785;28;20479;-64
2021/06/17 04:08:12;;;;;;;10.05;4.40;;;;;;;;;;5017100;28;20022;-65
2021/06/17 04:10:39;;;;;;;8.13;4.57;;;;;;;;;;5010435;28;20377;-64
2021/06/17 04:13:06;;;;;;;7.18;4.28;;;;;;;;;;5012643;28;20038;-63
2021/06/17 04:15:33;;;;;;;7.03;3.78;;;;;;;;;;5014789;28;20892;-62
2021/06/17 04:18:02;;;;;;;10.30;4.47;;;;;;;;;;5009621;28;20026;-65
2021/06/17 04:20:30;;;;;;;10.00;4.10;;;;;;;;;;5010189;28;20026;-66
2021/06/17 04:22:56;;;;;;;10.68;4.57;;;;;;;;;;5009658;28;20072;-65
2021/06/17 04:25:23;;;;;;;10.20;4.45;;;;;;;;;;5010731;28;20073;-62
2021/06/17 04:27:50;;;;;;;9.00;4.28;;;;;;;;;;5010783;28;20096;-66
2021/06/17 04:30:20;;;;;;;6.55;4.20;;;;;;;;;;5011588;28;20101;-65
2021/06/17 04:32:47;;;;;;;7.47;4.25;;;;;;;;;;5013710;28;20092;-65
2021/06/17 04:35:14;;;;;;;7.90;4.28;;;;;;;;;;5014258;28;20097;-63
2021/06/17 04:37:40;;;;;;;6.78;4.00;;;;;;;;;;5010787;28;20056;-63
2021/06/17 04:40:08;;;;;;;9.60;4.45;;;;;;;;;;5000959;28;20022;-62
2021/06/17 04:42:35;;;;;;;13.98;5.38;;;;;;;;;;5002170;28;20132;-63
2021/06/17 04:45:01;;;;;;;8.55;4.60;;;;;;;;;;5005630;28;20041;-63
2021/06/17 04:47:27;;;;;;;11.43;4.22;;;;;;;;;;5006079;28;20488;-66
2021/06/17 04:49:53;;;;;;;9.38;4.25;;;;;;;;;;5013994;28;20041;-62
2021/06/17 04:52:35;;;;;;;5.65;4.30;;;;;;;;;;5016622;28;20582;-62
2021/06/17 04:55:01;;;;;;;7.90;4.65;;;;;;;;;;5013420;28;20088;-62
2021/06/17 04:57:27;;;;;;;10.50;4.10;;;;;;;;;;5013940;28;20069;-62
2021/06/17 04:59:53;;;;;;;8.73;5.28;;;;;;;;;;5012100;28;20038;-63
2021/06/17 05:02:19;;;;;;;12.27;5.03;;;;;;;;;;5010643;28;20022;-64
2021/06/17 05:04:45;;;;;;;8.13;4.60;;;;;;;;;;5012552;28;20108;-63
2021/06/17 05:12:26;;;;;;;8.82;4.00;;;;;;;;;;5011905;28;20045;-74
2021/06/17 05:14:52;;;;;;;10.48;4.82;;;;;;;;;;5013260;28;20036;-74
2021/06/17 05:17:18;;;;;;;13.70;4.85;;;;;;;;;;5015630;28;20097;-67
2021/06/17 05:19:44;;;;;;;9.07;4.53;;;;;;;;;;5014743;28;20357;-63
2021/06/17 05:22:11;;;;;;;9.38;4.82;;;;;;;;;;5011157;28;20026;-64
2021/06/17 05:24:37;;;;;;;9.15;5.10;;;;;;;;;;5010199;28;20021;-63
2021/06/17 05:27:03;;;;;;;17.70;5.65;;;;;;;;;;5014585;28;20025;-66
2021/06/17 05:29:29;;;;;;;8.98;5.13;;;;;;;;;;5011731;28;20037;-64
2021/06/17 05:31:56;;;;;;;15.75;5.78;;;;;;;;;;5012290;28;20029;-64
2021/06/17 05:34:22;;;;;;;12.95;5.30;;;;;;;;;;5010249;28;20170;-64
2021/06/17 05:36:48;;;;;;;13.38;5.65;;;;;;;;;;5019409;28;20026;-67
2021/06/17 05:39:14;;;;;;;12.55;5.53;;;;;;;;;;5013009;28;20108;-67
2021/06/17 05:41:40;;;;;;;12.00;5.50;;;;;;;;;;5011094;28;20468;-63
2021/06/17 05:44:06;;;;;;;9.52;5.32;;;;;;;;;;5011325;28;20041;-65
2021/06/17 05:46:33;;;;;;;13.73;5.30;;;;;;;;;;5013126;28;20501;-65
2021/06/17 05:49:00;;;;;;;12.68;5.95;;;;;;;;;;5011085;28;20069;-65
2021/06/17 05:51:26;;;;;;;15.73;5.95;;;;;;;;;;5011008;28;20025;-67
2021/06/17 05:53:52;;;;;;;15.63;5.82;;;;;;;;;;5011929;28;20038;-65
2021/06/17 05:56:19;;;;;;;10.32;5.63;;;;;;;;;;5010125;28;20586;-65
2021/06/17 05:58:47;;;;;;;9.63;5.65;;;;;;;;;;5013793;28;20033;-64
2021/06/17 06:01:13;;;;;;;12.68;5.18;;;;;;;;;;5014474;28;20026;-66
2021/06/17 06:03:39;;;;;;;12.63;6.22;;;;;;;;;;5012289;28;20059;-64
2021/06/17 06:06:06;;;;;;;12.30;5.97;;;;;;;;;;5012283;28;20045;-65
2021/06/17 06:08:32;;;;;;;15.95;6.13;;;;;;;;;;5010996;28;20088;-68
2021/06/17 06:10:58;;;;;;;14.73;5.93;;;;;;;;;;5011942;28;20037;-68
2021/06/17 06:13:24;;;;;;;14.50;5.57;;;;;;;;;;5005914;28;20049;-64
2021/06/17 06:15:51;;;;;;;11.73;6.15;;;;;;;;;;5007219;28;20029;-65
2021/06/17 06:18:17;;;;;;;10.13;5.45;;;;;;;;;;5018017;28;20026;-62
2021/06/17 06:20:45;;;;;;;10.05;5.50;;;;;;;;;;5005880;28;20026;-76
2021/06/17 06:23:11;;;;;;;14.48;5.55;;;;;;;;;;5009564;28;20025;-63
2021/06/17 06:25:38;;;;;;;12.65;5.68;;;;;;;;;;5011752;28;20018;-62
2021/06/17 06:28:05;;;;;;;12.35;5.45;;;;;;;;;;5011541;28;20029;-62
2021/06/17 06:30:31;;;;;;;13.90;5.60;;;;;;;;;;5004313;28;20100;-66
2021/06/17 06:32:57;;;;;;;12.38;5.47;;;;;;;;;;5009865;28;20037;-80
2021/06/17 06:35:24;;;;;;;13.02;5.45;;;;;;;;;;5008819;28;20141;-82
2021/06/17 06:37:51;;;;;;;17.67;6.18;;;;;;;;;;5010160;28;20539;-82
2021/06/17 06:40:20;;;;;;;11.48;5.70;;;;;;;;;;5009194;28;20037;-76
2021/06/17 06:42:47;;;;;;;15.63;5.80;;;;;;;;;;5011321;28;20068;-75
2021/06/17 06:45:13;;;;;;;14.15;5.93;;;;;;;;;;5008918;28;20050;-75
2021/06/17 06:47:39;;;;;;;13.57;5.78;;;;;;;;;;5005849;28;20045;-74
2021/06/17 06:50:06;;;;;;;12.63;5.70;;;;;;;;;;5010418;28;20538;-77
2021/06/17 06:52:32;;;;;;;13.98;5.32;;;;;;;;;;5014201;28;20089;-80
2021/06/17 06:54:59;;;;;;;548.92;49.17;;;;;;;;;;5011492;28;20030;-79
2021/06/17 06:57:26;;;;;;;14.02;5.70;;;;;;;;;;5009524;28;20511;-74
2021/06/17 06:59:52;;;;;;;10.48;5.03;;;;;;;;;;5013025;28;20415;-74
2021/06/17 07:02:18;;;;;;;15.55;5.00;;;;;;;;;;5010136;28;20120;-74
2021/06/17 07:04:44;;;;;;;14.32;4.68;;;;;;;;;;4994758;28;20442;-70
2021/06/17 07:07:10;;;;;;;10.85;4.80;;;;;;;;;;5010542;28;20036;-76
2021/06/17 07:09:39;;;;;;;10.27;4.60;;;;;;;;;;5003074;28;20495;-65
2021/06/17 07:12:05;;;;;;;8.85;4.20;;;;;;;;;;5010594;28;20522;-80
2021/06/17 07:14:31;;;;;;;12.88;3.83;;;;;;;;;;5010038;28;20100;-70
2021/06/17 07:16:57;;;;;;;4.72;3.28;;;;;;;;;;5011157;28;20026;-67
2021/06/17 07:19:24;;;;;;;10.05;3.97;;;;;;;;;;5011356;28;20030;-71
2021/06/17 07:21:50;;;;;;;9.00;3.88;;;;;;;;;;5010040;28;20047;-70
2021/06/17 07:24:16;;;;;;;8.90;3.58;;;;;;;;;;5010685;28;20026;-69
2021/06/17 07:26:42;;;;;;;7.88;3.80;;;;;;;;;;4992240;28;20034;-80
2021/06/17 07:29:08;;;;;;;11.27;4.43;;;;;;;;;;5003502;28;20034;-80
2021/06/17 07:31:36;;;;;;;8.68;4.10;;;;;;;;;;5012232;28;20033;-80
2021/06/17 07:34:03;;;;;;;10.85;4.90;;;;;;;;;;5029021;28;20889;-81
2021/06/17 07:36:30;;;;;;;16.98;4.70;;;;;;;;;;5029689;28;20091;-85
2021/06/17 07:38:56;;;;;;;12.00;4.88;;;;;;;;;;5012939;28;20025;-90
2021/06/17 07:41:22;;;;;;;12.18;4.88;;;;;;;;;;5013553;28;20048;-87
2021/06/17 07:43:48;;;;;;;12.77;4.72;;;;;;;;;;5020818;28;20519;-75
2021/06/17 07:46:14;;;;;;;9.23;4.72;;;;;;;;;;5004259;28;20065;-74
2021/06/17 07:48:40;;;;;;;10.80;4.80;;;;;;;;;;5005616;28;20399;-70
2021/06/17 07:51:08;;;;;;;12.90;4.60;;;;;;;;;;5001413;28;20638;-83
2021/06/17 07:53:35;;;;;;;17.80;5.25;;;;;;;;;;4999880;28;20045;-74
2021/06/17 07:56:01;;;;;;;14.23;4.78;;;;;;;;;;5000345;28;20088;-89
2021/06/17 07:58:27;;;;;;;9.20;4.72;;;;;;;;;;5001044;28;20407;-84
2021/06/17 08:00:53;;;;;;;15.32;5.50;;;;;;;;;;5005906;28;20033;-76
2021/06/17 08:03:19;;;;;;;9.45;4.10;;;;;;;;;;5000987;28;20026;-75
2021/06/17 08:05:45;;;;;;;9.90;4.20;;;;;;;;;;5000626;28;20055;-74
2021/06/17 08:08:11;;;;;;;15.65;4.68;;;;;;;;;;5005116;28;20099;-76
2021/06/17 08:10:39;;;;;;;9.43;4.60;;;;;;;;;;4999087;28;20030;-82
2021/06/17 08:13:05;;;;;;;12.40;4.40;;;;;;;;;;5008170;28;20041;-81
2021/06/17 08:15:32;;;;;;;9.63;4.38;;;;;;;;;;5006275;28;20025;-81
2021/06/17 08:17:58;;;;;;;12.85;4.00;;;;;;;;;;5004109;28;20030;-78
2021/06/17 08:20:24;;;;;;;6.68;4.18;;;;;;;;;;5001565;28;20024;-78
2021/06/17 08:22:50;;;;;;;8.30;4.15;;;;;;;;;;4998276;28;20109;-77
2021/06/17 08:25:16;;;;;;;12.75;4.10;;;;;;;;;;5004357;28;20073;-75
2021/06/17 08:27:42;;;;;;;13.07;4.18;;;;;;;;;;5008617;28;20547;-77
2021/06/17 08:30:10;;;;;;;10.05;4.53;;;;;;;;;;5012420;28;20094;-78
2021/06/17 08:32:36;;;;;;;12.05;4.80;;;;;;;;;;5009835;28;20506;-70
2021/06/17 08:35:03;;;;;;;10.43;3.67;;;;;;;;;;5014716;28;20034;-67
2021/06/17 08:37:29;;;;;;;8.65;4.07;;;;;;;;;;5015764;28;20390;-65
2021/06/17 08:39:58;;;;;;;8.68;3.80;;;;;;;;;;5015837;28;20523;-66
2021/06/17 08:42:28;;;;;;;7.40;3.78;;;;;;;;;;5012246;28;20045;-75
2021/06/17 08:44:55;;;;;;;6.05;3.63;;;;;;;;;;5030992;28;20462;-69
2021/06/17 08:47:21;;;;;;;8.10;3.60;;;;;;;;;;5034013;28;20021;-69
2021/06/17 08:49:51;;;;;;;8.00;3.78;;;;;;;;;;5026220;28;20047;-66
2021/06/17 08:52:18;;;;;;;12.48;3.67;;;;;;;;;;5030989;28;20033;-67
2021/06/17 08:54:44;;;;;;;10.07;3.95;;;;;;;;;;5024195;28;20368;-67
2021/06/17 08:57:10;;;;;;;9.60;3.60;;;;;;;;;;5028416;28;20051;-80
2021/06/17 08:59:41;;;;;;;10.45;3.70;;;;;;;;;;5013030;28;20091;-80
2021/06/17 09:02:07;;;;;;;7.72;4.13;;;;;;;;;;5013834;28;20029;-85
2021/06/17 09:04:37;;;;;;;8.80;3.60;;;;;;;;;;5027968;28;20113;-77
2021/06/17 09:07:05;;;;;;;9.38;3.45;;;;;;;;;;5032452;28;20080;-66
2021/06/17 09:09:41;;;;;;;7.10;3.50;;;;;;;;;;5032900;28;20654;-67
2021/06/17 09:12:08;;;;;;;8.73;3.40;;;;;;;;;;5026086;28;20099;-67
2021/06/17 09:14:34;;;;;;;7.05;3.38;;;;;;;;;;5013080;28;20439;-63
2021/06/17 09:17:04;;;;;;;8.70;3.35;;;;;;;;;;5032158;28;20471;-68
2021/06/17 09:19:34;;;;;;;7.55;3.45;;;;;;;;;;5033539;28;20514;-66
2021/06/17 09:22:02;;;;;;;10.45;3.63;;;;;;;;;;5032537;28;20027;-66
2021/06/17 09:24:36;;;;;;;9.85;3.50;;;;;;;;;;5032058;28;20053;-69
2021/06/17 09:27:20;;;;;;;9.45;3.78;;;;;;;;;;5026594;28;20036;-64
2021/06/17 09:29:47;;;;;;;14.73;4.13;;;;;;;;;;5030764;28;20076;-63
2021/06/17 09:32:20;;;;;;;7.85;3.53;;;;;;;;;;5032260;28;20106;-68
2021/06/17 09:34:47;;;;;;;8.82;3.45;;;;;;;;;;5033146;28;20018;-73
2021/06/17 09:37:32;;;;;;;13.52;3.92;;;;;;;;;;5032706;28;20037;-69
2021/06/17 09:39:59;;;;;;;9.98;3.45;;;;;;;;;;5032432;28;20061;-72
2021/06/17 09:42:29;;;;;;;5.05;3.40;;;;;;;;;;5027583;28;20026;-72
2021/06/17 09:44:55;;;;;;;9.23;3.33;;;;;;;;;;5016060;28;20045;-73
2021/06/17 09:47:27;;;;;;;10.65;3.88;;;;;;;;;;5016185;28;20034;-71
2021/06/17 09:49:54;;;;;;;8.73;3.97;;;;;;;;;;5011454;28;20390;-71
2021/06/17 09:52:36;;;;;;;7.90;3.20;;;;;;;;;;5012292;28;20044;-73
2021/06/17 09:55:02;;;;;;;6.70;3.20;;;;;;;;;;5017608;28;20466;-71
2021/06/17 09:57:34;;;;;;;5.65;3.20;;;;;;;;;;5017271;28;20061;-68
2021/06/17 10:00:08;;;;;;;5.53;3.38;;;;;;;;;;5013624;28;20342;-69
2021/06/17 10:02:35;;;;;;;7.40;3.35;;;;;;;;;;5015379;28;20026;-67
2021/06/17 10:05:16;;;;;;;6.22;2.88;;;;;;;;;;5013535;28;20318;-68
2021/06/17 10:07:42;;;;;;;10.07;3.25;;;;;;;;;;5020045;28;20371;-70
2021/06/17 10:10:09;;;;;;;6.80;2.95;;;;;;;;;;5022234;28;20014;-69
2021/06/17 10:12:36;;;;;;;5.72;3.63;;;;;;;;;;5012357;28;20506;-70
2021/06/17 10:15:03;;;;;;;6.10;2.85;;;;;;;;;;5013647;28;20046;-71
2021/06/17 10:17:29;;;;;;;5.30;3.08;;;;;;;;;;5014299;28;20427;-76
2021/06/17 10:19:59;;;;;;;6.88;2.92;;;;;;;;;;5012114;28;20109;-74
2021/06/17 10:22:31;;;;;;;6.05;2.95;;;;;;;;;;5011176;28;20050;-86
2021/06/17 10:24:58;;;;;;;9.80;3.17;;;;;;;;;;5002017;28;20562;-78
2021/06/17 10:27:31;;;;;;;7.47;3.00;;;;;;;;;;5013170;28;20018;-82
2021/06/17 10:29:57;;;;;;;6.38;2.90;;;;;;;;;;5014345;28;20479;-73
2021/06/17 10:32:37;;;;;;;3.78;2.70;;;;;;;;;;5009533;28;20078;-75
2021/06/17 10:35:04;;;;;;;9.00;3.10;;;;;;;;;;5012817;28;20028;-75
2021/06/17 10:37:32;;;;;;;4.25;2.70;;;;;;;;;;5012470;28;20026;-87
2021/06/17 10:40:16;;;;;;;5.85;2.80;;;;;;;;;;5008938;28;20030;-73
2021/06/17 10:42:43;;;;;;;9.60;3.05;;;;;;;;;;5012563;28;20069;-76
2021/06/17 10:45:10;;;;;;;5.57;2.70;;;;;;;;;;5008892;28;20053;-67
2021/06/17 10:50:15;;;;;;;5.95;2.70;;;;;;;;;;5004388;28;20030;-67
2021/06/17 10:52:42;;;;;;;7.93;3.00;;;;;;;;;;5007494;28;20042;-78
2021/06/17 10:55:18;;;;;;;7.60;2.90;;;;;;;;;;5008982;28;20414;-77
2021/06/17 10:57:44;;;;;;;6.03;2.95;;;;;;;;;;5007214;28;20545;-65
2021/06/17 11:03:09;;;;;;;6.40;2.70;;;;;;;;;;5007794;28;20029;-68
2021/06/17 11:05:35;;;;;;;7.95;3.10;;;;;;;;;;4995448;28;20109;-70
2021/06/17 11:08:14;;;;;;;6.72;3.08;;;;;;;;;;5005786;28;20054;-65
2021/06/17 11:10:46;;;;;;;6.07;2.90;;;;;;;;;;5004920;28;20030;-67
2021/06/17 11:13:30;;;;;;;6.45;3.20;;;;;;;;;;5006519;28;20411;-70
2021/06/17 11:16:00;;;;;;;7.18;3.03;;;;;;;;;;5009216;28;20026;-69
2021/06/17 11:18:54;;;;;;;8.65;2.95;;;;;;;;;;5007211;28;20026;-63
2021/06/17 11:21:23;;;;;;;6.70;2.50;;;;;;;;;;5010615;28;20052;-63
2021/06/17 11:24:00;;;;;;;7.47;2.95;;;;;;;;;;5009662;28;20410;-61
2021/06/17 11:26:44;;;;;;;4.28;2.70;;;;;;;;;;4999299;28;20030;-62
2021/06/17 11:29:12;;;;;;;5.68;2.70;;;;;;;;;;5000862;28;20456;-65
2021/06/17 11:31:39;;;;;;;5.07;2.55;;;;;;;;;;4999476;28;20361;-62
2021/06/17 11:34:06;;;;;;;7.97;2.80;;;;;;;;;;5000410;28;20065;-62
2021/06/17 11:36:32;;;;;;;3.97;2.30;;;;;;;;;;5000371;28;20503;-61
2021/06/17 11:39:02;;;;;;;5.75;2.58;;;;;;;;;;4998530;28;20475;-77
2021/06/17 11:41:32;;;;;;;5.55;2.60;;;;;;;;;;5001580;28;20049;-63
2021/06/17 11:44:04;;;;;;;6.28;2.67;;;;;;;;;;5006397;28;20047;-69
2021/06/17 11:46:37;;;;;;;8.27;2.83;;;;;;;;;;5004364;28;20558;-67
2021/06/17 11:49:05;;;;;;;6.28;2.75;;;;;;;;;;5004316;28;20050;-65
2021/06/17 11:51:41;;;;;;;7.13;3.00;;;;;;;;;;5002153;28;20053;-61
2021/06/17 11:54:08;;;;;;;11.48;2.72;;;;;;;;;;5005898;28;20081;-62
2021/06/17 11:56:34;;;;;;;5.78;2.63;;;;;;;;;;5004753;28;20029;-76
2021/06/17 11:59:19;;;;;;;8.30;2.85;;;;;;;;;;5008409;28;20506;-68
2021/06/17 12:02:03;;;;;;;5.75;2.88;;;;;;;;;;5003262;28;20117;-67
2021/06/17 12:04:40;;;;;;;5.90;2.88;;;;;;;;;;5003692;28;20026;-65
2021/06/17 12:07:06;;;;;;;5.30;2.60;;;;;;;;;;5000761;28;20037;-63
2021/06/17 12:09:32;;;;;;;5.57;2.80;;;;;;;;;;5001185;28;20026;-66
2021/06/17 12:12:17;;;;;;;2.60;2.20;;;;;;;;;;5002118;28;20026;-70
2021/06/17 12:14:46;;;;;;;5.85;2.55;;;;;;;;;;4999200;28;20125;-64
2021/06/17 12:17:13;;;;;;;9.60;2.90;;;;;;;;;;5015083;28;20029;-64
2021/06/17 12:19:39;;;;;;;8.70;3.00;;;;;;;;;;5002400;28;20025;-69
2021/06/17 12:22:09;;;;;;;5.30;2.92;;;;;;;;;;5013078;28;20022;-68
2021/06/17 12:24:35;;;;;;;3.72;2.35;;;;;;;;;;5011637;28;20025;-71
2021/06/17 12:27:01;;;;;;;7.35;2.63;;;;;;;;;;5013746;28;20464;-64
2021/06/17 12:29:27;;;;;;;13.07;2.58;;;;;;;;;;5013387;28;20042;-69
2021/06/17 12:31:55;;;;;;;9.10;2.80;;;;;;;;;;5013764;28;20026;-69
2021/06/17 12:34:21;;;;;;;4.28;2.45;;;;;;;;;;5011699;28;20037;-68
2021/06/17 12:37:05;;;;;;;5.60;2.60;;;;;;;;;;5013560;28;20033;-71
2021/06/17 12:39:31;;;;;;;4.07;2.50;;;;;;;;;;5013163;28;20499;-68
2021/06/17 12:41:57;;;;;;;7.05;2.67;;;;;;;;;;5014440;28;20034;-69
2021/06/17 12:44:43;;;;;;;4.72;2.35;;;;;;;;;;5014157;28;20066;-71
2021/06/17 12:47:17;;;;;;;4.18;2.53;;;;;;;;;;5010480;28;20030;-70
2021/06/17 12:52:32;;;;;;;4.97;2.40;;;;;;;;;;5013773;28;20057;-71
2021/06/17 12:54:58;;;;;;;2.50;2.10;;;;;;;;;;5014159;28;20018;-69
2021/06/17 12:57:25;;;;;;;5.30;2.60;;;;;;;;;;5014665;28;20025;-70
2021/06/17 12:59:57;;;;;;;8.93;2.50;;;;;;;;;;5013666;28;20022;-69
2021/06/17 13:02:23;;;;;;;3.42;2.35;;;;;;;;;;5013368;28;20026;-70
2021/06/17 13:05:16;;;;;;;2.95;2.28;;;;;;;;;;5011606;28;20034;-71
2021/06/17 13:08:01;;;;;;;4.55;2.20;;;;;;;;;;5011152;28;20038;-71
2021/06/17 13:10:28;;;;;;;4.38;2.20;;;;;;;;;;5011733;28;20034;-71
2021/06/17 13:13:12;;;;;;;5.78;2.17;;;;;;;;;;5013715;28;20045;-71
2021/06/17 13:15:38;;;;;;;5.93;2.75;;;;;;;;;;5013922;28;20097;-70
2021/06/17 13:18:05;;;;;;;3.30;2.40;;;;;;;;;;5013570;28;20026;-71
2021/06/17 13:20:34;;;;;;;5.25;2.17;;;;;;;;;;5010890;28;20434;-69
2021/06/17 13:23:10;;;;;;;4.00;2.50;;;;;;;;;;5007516;28;20030;-68
2021/06/17 13:25:37;;;;;;;7.63;2.67;;;;;;;;;;5008947;28;20494;-67
2021/06/17 13:28:21;;;;;;;3.78;2.33;;;;;;;;;;5011659;28;20037;-63
2021/06/17 13:30:47;;;;;;;8.23;2.35;;;;;;;;;;5013637;28;20076;-67
2021/06/17 13:33:13;;;;;;;4.20;2.33;;;;;;;;;;5012941;28;20033;-66
2021/06/17 13:35:39;;;;;;;9.75;2.60;;;;;;;;;;5013188;28;20026;-69
2021/06/17 13:38:05;;;;;;;4.55;2.30;;;;;;;;;;5011650;28;20041;-65
2021/06/17 13:40:32;;;;;;;6.60;2.50;;;;;;;;;;5013017;28;20030;-66
2021/06/17 13:42:59;;;;;;;3.65;2.25;;;;;;;;;;5012336;28;20022;-67
2021/06/17 13:45:26;;;;;;;4.82;2.28;;;;;;;;;;5012324;28;20033;-68
2021/06/17 13:47:52;;;;;;;8.23;2.58;;;;;;;;;;5005986;28;20037;-67
2021/06/17 13:50:19;;;;;;;3.72;2.33;;;;;;;;;;5013128;28;20034;-64
2021/06/17 13:52:45;;;;;;;4.47;2.53;;;;;;;;;;5009623;28;20037;-64
2021/06/17 13:55:15;;;;;;;8.02;2.22;;;;;;;;;;5012916;28;20018;-69
2021/06/17 13:57:42;;;;;;;8.02;2.30;;;;;;;;;;5010846;28;20026;-63
2021/06/17 14:00:12;;;;;;;6.82;2.33;;;;;;;;;;5012049;28;20034;-67
2021/06/17 14:02:39;;;;;;;4.72;2.10;;;;;;;;;;5011374;28;20097;-69
2021/06/17 14:05:05;;;;;;;4.18;2.15;;;;;;;;;;5011621;28;20034;-67
2021/06/17 14:07:31;;;;;;;5.43;2.53;;;;;;;;;;5012339;28;20018;-67
2021/06/17 14:09:57;;;;;;;6.18;2.70;;;;;;;;;;5012970;28;20033;-69
2021/06/17 14:12:27;;;;;;;6.85;2.53;;;;;;;;;;5012398;28;20041;-67
2021/06/17 14:14:53;;;;;;;5.80;2.67;;;;;;;;;;5011438;28;20077;-63
2021/06/17 14:17:20;;;;;;;3.88;2.40;;;;;;;;;;5007211;28;20032;-66
2021/06/17 14:19:47;;;;;;;4.88;2.35;;;;;;;;;;5010269;28;20038;-65
2021/06/17 14:22:13;;;;;;;7.03;2.40;;;;;;;;;;5008746;28;20042;-69
2021/06/17 14:24:39;;;;;;;6.82;2.50;;;;;;;;;;5005977;28;20040;-68
2021/06/17 14:27:06;;;;;;;4.45;2.45;;;;;;;;;;5006766;28;20080;-68
2021/06/17 14:29:32;;;;;;;10.20;2.80;;;;;;;;;;5011133;28;20109;-68
2021/06/17 14:31:58;;;;;;;6.60;2.63;;;;;;;;;;5007744;28;20616;-62
2021/06/17 14:34:25;;;;;;;6.47;2.35;;;;;;;;;;5003285;28;20053;-67
2021/06/17 14:36:51;;;;;;;6.25;2.50;;;;;;;;;;5011199;28;20026;-64
2021/06/17 14:39:17;;;;;;;11.32;2.72;;;;;;;;;;5011830;28;20026;-65
2021/06/17 14:41:43;;;;;;;5.03;2.10;;;;;;;;;;5011729;28;20080;-69
2021/06/17 14:44:12;;;;;;;6.65;2.97;;;;;;;;;;5011300;28;20463;-67
2021/06/17 14:46:40;;;;;;;7.68;2.50;;;;;;;;;;5009716;28;20034;-65
2021/06/17 14:49:06;;;;;;;6.65;2.42;;;;;;;;;;5010431;28;20022;-67
2021/06/17 14:51:35;;;;;;;7.70;2.67;;;;;;;;;;5008594;28;20780;-63
2021/06/17 14:54:01;;;;;;;5.00;2.33;;;;;;;;;;5005528;28;20159;-69
2021/06/17 14:56:28;;;;;;;3.78;2.20;;;;;;;;;;4986770;28;20428;-68
2021/06/17 14:58:57;;;;;;;5.07;2.45;;;;;;;;;;5008617;28;20387;-67
2021/06/17 15:01:23;;;;;;;6.15;2.70;;;;;;;;;;5012452;28;20061;-63